Time;durP1;ratioP1;P1;durP2;ratioP2;P2;SDS_P1;SDS_P2;PMS_P1;PMS_P2;Temp;Humidity;BMP_temperature;BMP_pressure;BME280_temperature;BME280_humidity;BME280_pressure;Samples;Min_cycle;Max_cycle;Signal;HPM_P1;HPM_P2
2021/04/08 00:01:14;;;;;;;8.27;3.80;;;1.40;99.90;;;;;;4976059;28;20238;-81
2021/04/08 00:03:40;;;;;;;8.43;3.40;;;1.40;99.90;;;;;;4977099;28;20164;-81
2021/04/08 00:06:05;;;;;;;8.07;4.57;;;1.40;99.90;;;;;;4960167;28;20214;-81
2021/04/08 00:08:31;;;;;;;7.60;2.37;;;1.40;99.90;;;;;;4960422;28;20230;-81
2021/04/08 00:10:56;;;;;;;8.17;3.60;;;1.40;99.90;;;;;;4960340;28;20260;-83
2021/04/08 00:13:22;;;;;;;10.13;3.50;;;1.40;99.90;;;;;;4976459;28;20184;-80
2021/04/08 00:15:48;;;;;;;10.90;3.67;;;1.40;99.90;;;;;;4960257;28;20185;-81
2021/04/08 00:18:13;;;;;;;5.23;3.47;;;1.50;99.90;;;;;;4960115;28;20617;-81
2021/04/08 00:20:39;;;;;;;9.67;3.70;;;1.40;99.90;;;;;;4959874;28;20221;-84
2021/04/08 00:23:04;;;;;;;8.40;4.33;;;1.40;99.90;;;;;;4959578;28;20215;-82
2021/04/08 00:25:31;;;;;;;11.73;4.10;;;1.50;99.90;;;;;;4976071;28;20200;-81
2021/04/08 00:27:56;;;;;;;9.23;3.80;;;1.60;99.90;;;;;;4960752;28;20194;-81
2021/04/08 00:30:22;;;;;;;8.77;4.00;;;1.60;99.90;;;;;;4976163;28;20216;-80
2021/04/08 00:32:48;;;;;;;11.57;4.23;;;1.60;99.90;;;;;;4977267;28;20185;-80
2021/04/08 00:35:13;;;;;;;11.33;3.93;;;1.60;99.90;;;;;;4962889;28;20655;-81
2021/04/08 00:37:39;;;;;;;9.37;4.13;;;1.60;99.90;;;;;;4962786;28;20183;-81
2021/04/08 00:40:10;;;;;;;7.87;4.20;;;1.60;99.90;;;;;;4942742;28;575145;-80
2021/04/08 00:42:36;;;;;;;12.77;3.87;;;1.60;99.90;;;;;;4964039;28;20249;-81
2021/04/08 00:45:02;;;;;;;8.60;4.40;;;1.60;99.90;;;;;;4963867;28;20183;-81
2021/04/08 00:47:28;;;;;;;13.47;4.40;;;1.50;99.90;;;;;;4963836;28;20178;-80
2021/04/08 00:49:53;;;;;;;11.27;4.40;;;1.40;99.90;;;;;;4963263;28;20201;-83
2021/04/08 00:52:19;;;;;;;8.90;4.43;;;1.50;99.90;;;;;;4963676;28;20210;-81
2021/04/08 00:54:45;;;;;;;13.20;4.20;;;1.50;99.90;;;;;;4963796;28;20194;-81
2021/04/08 00:57:10;;;;;;;10.77;4.40;;;1.60;99.90;;;;;;4963978;28;20183;-81
2021/04/08 00:59:36;;;;;;;10.17;4.97;;;1.50;99.90;;;;;;4963995;28;20206;-81
2021/04/08 01:02:01;;;;;;;12.13;4.97;;;1.50;99.90;;;;;;4980032;28;20317;-81
2021/04/08 01:04:27;;;;;;;11.37;4.80;;;1.50;99.90;;;;;;4963195;28;20186;-81
2021/04/08 01:06:52;;;;;;;13.47;5.03;;;1.50;99.90;;;;;;4979227;28;20183;-82
2021/04/08 01:09:18;;;;;;;11.17;4.93;;;1.50;99.90;;;;;;4979116;28;20210;-81
2021/04/08 01:11:44;;;;;;;8.10;4.00;;;1.60;99.90;;;;;;4979369;28;20556;-80
2021/04/08 01:14:09;;;;;;;13.37;5.67;;;1.70;99.90;;;;;;4963772;28;20485;-85
2021/04/08 01:16:54;;;;;;;12.97;5.53;;;1.70;99.90;;;;;;4980224;28;20187;-80
2021/04/08 01:19:41;;;;;;;10.10;4.50;;;1.70;99.90;;;;;;4965460;28;20209;-82
2021/04/08 01:22:47;;;;;;;14.40;5.20;;;1.60;99.90;;;;;;4995547;28;20261;-82
2021/04/08 01:25:36;;;;;;;13.20;5.37;;;1.60;99.90;;;;;;4996165;28;20187;-81
2021/04/08 01:28:27;;;;;;;8.67;4.90;;;1.60;99.90;;;;;;4995213;28;20241;-84
2021/04/08 01:30:56;;;;;;;9.63;4.30;;;1.50;99.90;;;;;;4995419;28;20298;-81
2021/04/08 01:33:26;;;;;;;10.87;5.53;;;1.60;99.90;;;;;;4963328;28;20552;-81
2021/04/08 01:35:51;;;;;;;9.03;4.73;;;1.50;99.90;;;;;;4994924;28;20188;-80
2021/04/08 01:38:35;;;;;;;12.83;5.57;;;1.50;99.90;;;;;;4962623;28;20177;-84
2021/04/08 01:41:01;;;;;;;11.97;5.60;;;1.50;99.90;;;;;;4963869;28;20200;-82
2021/04/08 01:43:28;;;;;;;14.57;5.37;;;1.50;99.90;;;;;;4961968;28;20181;-85
2021/04/08 01:45:56;;;;;;;14.40;5.07;;;1.50;99.90;;;;;;4978648;28;20170;-82
2021/04/08 01:48:21;;;;;;;13.27;5.60;;;1.40;99.90;;;;;;4962034;28;20208;-81
2021/04/08 01:50:47;;;;;;;8.17;5.13;;;1.40;99.90;;;;;;4962070;28;20214;-82
2021/04/08 01:53:15;;;;;;;10.03;5.27;;;1.40;99.90;;;;;;4962344;28;20183;-81
2021/04/08 01:55:41;;;;;;;9.23;5.20;;;1.50;99.90;;;;;;4962461;28;20205;-81
2021/04/08 01:58:06;;;;;;;10.50;5.13;;;1.50;99.90;;;;;;4961964;28;20218;-82
2021/04/08 02:00:32;;;;;;;11.63;5.27;;;1.50;99.90;;;;;;4978465;28;20219;-83
2021/04/08 02:02:57;;;;;;;15.30;5.47;;;1.50;99.90;;;;;;4961526;28;20191;-81
2021/04/08 02:05:25;;;;;;;11.03;5.70;;;1.50;99.90;;;;;;4977465;28;20175;-82
2021/04/08 02:07:51;;;;;;;15.60;5.67;;;1.60;99.90;;;;;;4961735;28;20199;-81
2021/04/08 02:10:17;;;;;;;13.13;4.83;;;1.60;99.90;;;;;;4978331;28;20268;-81
2021/04/08 02:12:47;;;;;;;11.83;4.73;;;1.60;99.90;;;;;;4961934;28;20187;-81
2021/04/08 02:15:14;;;;;;;12.80;4.67;;;1.60;99.90;;;;;;4962168;28;20187;-82
2021/04/08 02:17:40;;;;;;;10.67;4.23;;;1.60;99.90;;;;;;4963047;28;20191;-83
2021/04/08 02:20:26;;;;;;;13.03;5.17;;;1.60;99.90;;;;;;4962356;28;20212;-81
2021/04/08 02:22:53;;;;;;;12.30;4.80;;;1.50;99.90;;;;;;4961980;28;20181;-80
2021/04/08 02:25:20;;;;;;;10.17;4.53;;;1.50;99.90;;;;;;4962437;28;20554;-81
2021/04/08 02:27:46;;;;;;;14.20;5.07;;;1.50;99.90;;;;;;4961939;28;20201;-81
2021/04/08 02:30:13;;;;;;;13.13;5.60;;;1.50;99.90;;;;;;4977803;28;20222;-83
2021/04/08 02:32:39;;;;;;;11.30;5.20;;;1.40;99.90;;;;;;4961116;28;20278;-81
2021/04/08 02:35:07;;;;;;;13.07;5.20;;;1.40;99.90;;;;;;4976736;28;20253;-82
2021/04/08 02:37:32;;;;;;;11.90;5.13;;;1.30;99.90;;;;;;4960467;28;20181;-80
2021/04/08 02:39:58;;;;;;;14.23;5.60;;;1.40;99.90;;;;;;4976332;28;20194;-82
2021/04/08 02:42:24;;;;;;;13.70;5.30;;;1.40;99.90;;;;;;4960063;28;20211;-81
2021/04/08 02:44:49;;;;;;;17.10;4.57;;;1.40;99.90;;;;;;4961481;28;20193;-80
2021/04/08 02:47:15;;;;;;;16.03;5.17;;;1.40;99.90;;;;;;4962087;28;20190;-81
2021/04/08 02:49:40;;;;;;;10.47;4.60;;;1.40;99.90;;;;;;4961281;28;20214;-82
2021/04/08 02:52:06;;;;;;;11.40;4.27;;;1.30;99.90;;;;;;4961018;28;20662;-80
2021/04/08 02:54:40;;;;;;;15.63;4.23;;;1.40;99.90;;;;;;4961465;28;20817;-81
2021/04/08 02:57:06;;;;;;;14.23;4.43;;;1.40;99.90;;;;;;4961581;28;20239;-81
2021/04/08 02:59:52;;;;;;;13.97;4.63;;;1.40;99.90;;;;;;4961518;28;20285;-81
2021/04/08 03:02:20;;;;;;;13.67;4.43;;;1.40;99.90;;;;;;4961655;28;20183;-85
2021/04/08 03:04:48;;;;;;;10.23;4.57;;;1.30;99.90;;;;;;4977999;28;20322;-80
2021/04/08 03:07:14;;;;;;;14.60;4.77;;;1.30;99.90;;;;;;4977933;28;20176;-81
2021/04/08 03:09:40;;;;;;;11.67;4.40;;;1.30;99.90;;;;;;4977551;28;20204;-80
2021/04/08 03:12:08;;;;;;;13.40;4.40;;;1.30;99.90;;;;;;4961852;28;20184;-81
2021/04/08 03:14:34;;;;;;;13.17;4.40;;;1.30;99.90;;;;;;4977931;28;20168;-82
2021/04/08 03:17:01;;;;;;;10.93;4.00;;;1.30;99.90;;;;;;4962160;28;20178;-80
2021/04/08 03:19:27;;;;;;;12.83;4.53;;;1.30;99.90;;;;;;4961169;28;20210;-81
2021/04/08 03:21:53;;;;;;;11.83;4.60;;;1.30;99.90;;;;;;4961954;28;20273;-83
2021/04/08 03:24:19;;;;;;;9.70;4.57;;;1.20;99.90;;;;;;4961187;28;20269;-80
2021/04/08 03:26:44;;;;;;;18.07;4.90;;;1.20;99.90;;;;;;4961521;28;20221;-81
2021/04/08 03:29:11;;;;;;;14.73;4.40;;;1.10;99.90;;;;;;4961070;28;20206;-81
2021/04/08 03:31:40;;;;;;;17.77;4.60;;;1.10;99.90;;;;;;4961368;28;20193;-80
2021/04/08 03:34:06;;;;;;;13.33;4.23;;;1.10;99.90;;;;;;4977880;28;20261;-80
2021/04/08 03:36:31;;;;;;;15.80;4.63;;;1.20;99.90;;;;;;4977752;28;20263;-81
2021/04/08 03:38:57;;;;;;;13.53;4.27;;;1.10;99.90;;;;;;4961272;28;20236;-83
2021/04/08 03:41:22;;;;;;;9.57;3.87;;;1.10;99.90;;;;;;4961448;28;20221;-80
2021/04/08 03:43:48;;;;;;;12.40;4.20;;;1.20;99.90;;;;;;4961715;28;20551;-80
2021/04/08 03:46:14;;;;;;;15.83;4.27;;;1.10;99.90;;;;;;4961245;28;20180;-81
2021/04/08 03:48:40;;;;;;;12.57;4.63;;;1.10;99.90;;;;;;4961260;28;20246;-83
2021/04/08 03:51:06;;;;;;;13.13;4.73;;;1.10;99.90;;;;;;4977937;28;20201;-81
2021/04/08 03:53:32;;;;;;;14.97;5.13;;;1.10;99.90;;;;;;4960925;28;20188;-80
2021/04/08 03:55:57;;;;;;;12.67;4.90;;;1.10;99.90;;;;;;4961093;28;20684;-83
2021/04/08 03:58:23;;;;;;;9.63;4.83;;;1.10;99.90;;;;;;4961953;28;20196;-80
2021/04/08 04:00:49;;;;;;;15.17;4.73;;;1.10;99.90;;;;;;4961132;28;20190;-81
2021/04/08 04:03:15;;;;;;;13.43;5.10;;;1.00;99.90;;;;;;4961271;28;20195;-81
2021/04/08 04:05:42;;;;;;;11.83;5.20;;;1.10;99.90;;;;;;4977602;28;20216;-81
2021/04/08 04:08:07;;;;;;;15.50;5.00;;;1.10;99.90;;;;;;4979210;28;20181;-79
2021/04/08 04:10:34;;;;;;;18.50;5.90;;;1.10;99.90;;;;;;4964815;28;20269;-81
2021/04/08 04:13:00;;;;;;;10.33;5.13;;;1.10;99.90;;;;;;4980682;28;20187;-81
2021/04/08 04:15:25;;;;;;;11.43;5.50;;;1.20;99.90;;;;;;4997221;28;20854;-81
2021/04/08 04:17:51;;;;;;;12.97;5.40;;;1.20;99.90;;;;;;4964811;28;20704;-80
2021/04/08 04:20:17;;;;;;;12.30;5.50;;;1.10;99.90;;;;;;4980638;28;20204;-81
2021/04/08 04:22:42;;;;;;;14.47;5.07;;;1.10;99.90;;;;;;4980709;28;20646;-81
2021/04/08 04:25:09;;;;;;;13.23;5.67;;;1.10;99.90;;;;;;4981694;28;20634;-83
2021/04/08 04:27:35;;;;;;;14.77;6.13;;;1.10;99.90;;;;;;4980716;28;20254;-80
2021/04/08 04:30:01;;;;;;;13.73;6.60;;;1.00;99.90;;;;;;4981147;28;20210;-81
2021/04/08 04:32:26;;;;;;;14.40;6.40;;;1.10;99.90;;;;;;4964310;28;20185;-82
2021/04/08 04:34:52;;;;;;;12.13;5.63;;;1.00;99.90;;;;;;4964382;28;20181;-80
2021/04/08 04:37:18;;;;;;;13.33;6.80;;;0.90;99.90;;;;;;4964572;28;20182;-80
2021/04/08 04:39:44;;;;;;;9.30;6.07;;;0.90;99.90;;;;;;4964326;28;20441;-80
2021/04/08 04:42:10;;;;;;;15.77;7.20;;;0.90;99.90;;;;;;4964392;28;20196;-80
2021/04/08 04:44:37;;;;;;;11.77;6.20;;;0.90;99.90;;;;;;4979313;28;20191;-78
2021/04/08 04:47:02;;;;;;;16.00;7.27;;;0.90;99.90;;;;;;4994002;28;20187;-76
2021/04/08 04:49:28;;;;;;;12.40;6.67;;;0.90;99.90;;;;;;4961699;28;20582;-77
2021/04/08 04:51:53;;;;;;;11.57;6.70;;;0.80;99.90;;;;;;4978177;28;20220;-77
2021/04/08 04:54:19;;;;;;;14.17;7.03;;;0.80;99.90;;;;;;4993985;28;20248;-75
2021/04/08 04:56:45;;;;;;;13.27;6.77;;;0.80;99.90;;;;;;4993694;28;20269;-78
2021/04/08 04:59:10;;;;;;;14.90;7.00;;;0.80;99.90;;;;;;4977512;28;20207;-76
2021/04/08 05:01:36;;;;;;;13.60;7.27;;;0.80;99.90;;;;;;4993727;28;20194;-76
2021/04/08 05:04:01;;;;;;;20.20;7.47;;;0.80;99.90;;;;;;4977412;28;20238;-80
2021/04/08 05:06:27;;;;;;;11.33;6.40;;;0.80;99.90;;;;;;4993442;28;20519;-77
2021/04/08 05:08:52;;;;;;;14.60;7.30;;;0.70;99.90;;;;;;4993478;28;20204;-76
2021/04/08 05:11:18;;;;;;;18.23;7.97;;;0.80;99.90;;;;;;4993580;28;20202;-75
2021/04/08 05:13:43;;;;;;;22.03;7.00;;;0.80;99.90;;;;;;4977481;28;20183;-76
2021/04/08 05:16:09;;;;;;;13.63;7.87;;;0.90;99.90;;;;;;4961196;28;20186;-81
2021/04/08 05:18:34;;;;;;;16.33;8.23;;;0.90;99.90;;;;;;4993402;28;20201;-76
2021/04/08 05:21:00;;;;;;;16.60;7.43;;;0.90;99.90;;;;;;4977295;28;20213;-75
2021/04/08 05:23:26;;;;;;;19.93;8.00;;;0.90;99.90;;;;;;4960861;28;20187;-76
2021/04/08 05:25:51;;;;;;;15.53;7.00;;;0.90;99.90;;;;;;4961009;28;20238;-77
2021/04/08 05:28:17;;;;;;;15.60;7.03;;;1.00;99.90;;;;;;4960922;28;20289;-77
2021/04/08 05:30:42;;;;;;;12.47;6.83;;;1.00;99.90;;;;;;4977022;28;20215;-77
2021/04/08 05:33:08;;;;;;;14.90;7.60;;;1.10;99.90;;;;;;4976978;28;20176;-77
2021/04/08 05:35:34;;;;;;;14.17;7.37;;;1.20;99.90;;;;;;4977052;28;20543;-79
2021/04/08 05:37:59;;;;;;;12.23;6.60;;;1.30;99.90;;;;;;4976872;28;20183;-76
2021/04/08 05:40:25;;;;;;;19.37;7.50;;;1.40;99.90;;;;;;4993618;28;20214;-79
2021/04/08 05:42:50;;;;;;;13.43;7.10;;;1.40;99.90;;;;;;4993298;28;20183;-79
2021/04/08 05:45:20;;;;;;;17.20;7.03;;;1.40;99.90;;;;;;4961455;28;20185;-77
2021/04/08 05:47:46;;;;;;;12.47;7.07;;;1.40;99.90;;;;;;4977131;28;20187;-77
2021/04/08 05:50:12;;;;;;;11.67;6.73;;;1.40;99.90;;;;;;4992576;28;20222;-77
2021/04/08 05:52:38;;;;;;;11.50;6.90;;;1.40;99.90;;;;;;4992961;28;20554;-76
2021/04/08 05:55:04;;;;;;;17.50;8.00;;;1.50;99.90;;;;;;4992851;28;20176;-78
2021/04/08 05:57:30;;;;;;;12.77;7.00;;;1.50;99.90;;;;;;4976767;28;20186;-80
2021/04/08 05:59:55;;;;;;;11.47;6.57;;;1.60;99.90;;;;;;4994370;28;20207;-78
2021/04/08 06:02:21;;;;;;;14.87;7.07;;;1.70;99.90;;;;;;5000722;28;20187;-77
2021/04/08 06:04:47;;;;;;;14.17;7.17;;;1.70;99.90;;;;;;5011983;28;20548;-78
2021/04/08 06:07:12;;;;;;;14.57;7.20;;;1.80;99.90;;;;;;5024342;28;20288;-82
2021/04/08 06:09:38;;;;;;;13.43;6.80;;;1.80;99.90;;;;;;5014399;28;20683;-78
2021/04/08 06:12:04;;;;;;;16.33;7.30;;;1.90;99.90;;;;;;4995388;28;20176;-80
2021/04/08 06:14:31;;;;;;;11.00;6.57;;;1.90;99.90;;;;;;4997569;28;20181;-78
2021/04/08 06:16:56;;;;;;;11.20;6.00;;;2.00;99.90;;;;;;5003646;28;20228;-80
2021/04/08 06:19:22;;;;;;;16.27;6.40;;;2.10;99.90;;;;;;5021681;28;20203;-80
2021/04/08 06:21:48;;;;;;;13.10;6.17;;;2.10;99.90;;;;;;5010684;28;20176;-79
2021/04/08 06:24:13;;;;;;;11.30;6.30;;;2.10;99.90;;;;;;5014682;28;20196;-77
2021/04/08 06:26:39;;;;;;;14.30;6.10;;;2.20;99.90;;;;;;5020717;28;20186;-80
2021/04/08 06:29:04;;;;;;;13.87;5.87;;;2.30;99.90;;;;;;5020143;28;20205;-76
2021/04/08 06:31:30;;;;;;;9.83;5.53;;;2.30;99.90;;;;;;5002001;28;20210;-77
2021/04/08 06:33:55;;;;;;;12.63;5.47;;;2.40;99.90;;;;;;5011407;28;20190;-77
2021/04/08 06:36:21;;;;;;;13.10;5.30;;;2.50;99.90;;;;;;5011889;28;20206;-78
2021/04/08 06:38:48;;;;;;;12.80;5.27;;;2.50;99.90;;;;;;4995390;28;20225;-78
2021/04/08 06:41:15;;;;;;;9.33;5.17;;;2.50;99.90;;;;;;4997015;28;20208;-78
2021/04/08 06:43:41;;;;;;;11.47;5.03;;;2.50;99.90;;;;;;5012177;28;20672;-78
2021/04/08 06:46:06;;;;;;;10.13;5.03;;;2.50;99.90;;;;;;4995843;28;20181;-77
2021/04/08 06:48:36;;;;;;;19.17;5.40;;;2.60;99.90;;;;;;4979735;28;20297;-78
2021/04/08 06:51:03;;;;;;;11.97;5.33;;;2.80;99.90;;;;;;4987116;28;20217;-79
2021/04/08 06:53:28;;;;;;;8.47;4.70;;;2.90;99.90;;;;;;5014642;28;20178;-76
2021/04/08 06:55:54;;;;;;;10.87;4.57;;;2.90;99.90;;;;;;4997506;28;20554;-76
2021/04/08 06:58:19;;;;;;;10.50;4.57;;;3.00;99.90;;;;;;5008176;28;20268;-74
2021/04/08 07:00:45;;;;;;;6.60;4.17;;;3.20;99.90;;;;;;4998425;28;20202;-76
2021/04/08 07:03:10;;;;;;;8.87;4.40;;;3.30;99.90;;;;;;4997594;28;20192;-75
2021/04/08 07:05:36;;;;;;;8.90;4.97;;;3.40;99.90;;;;;;5026897;28;20180;-76
2021/04/08 07:08:02;;;;;;;8.43;4.13;;;3.50;99.90;;;;;;5016219;28;20182;-77
2021/04/08 07:10:27;;;;;;;7.07;3.50;;;3.60;99.90;;;;;;5002231;28;20207;-77
2021/04/08 07:12:53;;;;;;;10.07;4.77;;;3.70;99.90;;;;;;4983275;28;20181;-76
2021/04/08 07:15:19;;;;;;;12.07;4.03;;;3.80;99.90;;;;;;4978858;28;20182;-77
2021/04/08 07:17:45;;;;;;;8.30;3.80;;;3.80;99.90;;;;;;5010069;28;20184;-77
2021/04/08 07:20:10;;;;;;;6.50;3.50;;;3.90;99.90;;;;;;5017031;28;20206;-77
2021/04/08 07:22:36;;;;;;;5.20;2.50;;;4.00;99.90;;;;;;5001140;28;20259;-77
2021/04/08 07:25:01;;;;;;;7.63;3.47;;;4.00;99.90;;;;;;5017649;28;20206;-76
2021/04/08 07:27:32;;;;;;;7.03;3.60;;;4.10;99.90;;;;;;4997265;28;20274;-74
2021/04/08 07:29:59;;;;;;;6.60;3.67;;;4.10;99.90;;;;;;4995250;28;20616;-75
2021/04/08 07:32:30;;;;;;;6.17;3.10;;;4.30;99.90;;;;;;4980835;28;20184;-74
2021/04/08 07:34:56;;;;;;;6.23;3.03;;;4.50;99.90;;;;;;5015514;28;20203;-79
2021/04/08 07:37:32;;;;;;;9.97;3.30;;;4.50;99.90;;;;;;5031828;28;20179;-76
2021/04/08 07:39:59;;;;;;;8.73;3.47;;;4.60;99.90;;;;;;5014787;28;20233;-79
2021/04/08 07:42:27;;;;;;;6.73;3.20;;;5.00;99.90;;;;;;5015419;28;20179;-76
2021/04/08 07:44:58;;;;;;;7.80;3.70;;;5.30;99.90;;;;;;5001874;28;20189;-78
2021/04/08 07:47:25;;;;;;;7.87;2.70;;;5.60;99.90;;;;;;5015354;28;20190;-79
2021/04/08 07:49:53;;;;;;;10.73;2.80;;;5.20;99.90;;;;;;4999294;28;20210;-80
2021/04/08 07:52:26;;;;;;;6.83;2.77;;;5.00;99.90;;;;;;5004478;28;20246;-78
2021/04/08 07:54:57;;;;;;;8.40;2.90;;;5.20;99.90;;;;;;5008391;28;20260;-79
2021/04/08 07:57:23;;;;;;;6.93;2.93;;;5.40;99.90;;;;;;5004498;28;20168;-80
2021/04/08 07:59:49;;;;;;;4.53;2.67;;;5.40;99.90;;;;;;5015870;28;20727;-80
2021/04/08 08:02:14;;;;;;;7.70;3.00;;;5.50;99.90;;;;;;5015571;28;20185;-78
2021/04/08 08:04:40;;;;;;;9.00;2.80;;;5.60;99.90;;;;;;5015677;28;20175;-78
2021/04/08 08:07:05;;;;;;;5.00;2.60;;;5.80;99.90;;;;;;5014348;28;20179;-78
2021/04/08 08:09:31;;;;;;;9.47;2.60;;;5.80;99.90;;;;;;5014553;28;20555;-79
2021/04/08 08:12:10;;;;;;;9.90;2.60;;;5.80;99.90;;;;;;5015522;28;20170;-76
2021/04/08 08:14:37;;;;;;;11.17;2.70;;;5.80;99.90;;;;;;4999192;28;20168;-80
2021/04/08 08:17:13;;;;;;;8.40;2.20;;;6.10;99.90;;;;;;5011326;28;20584;-76
2021/04/08 08:19:43;;;;;;;6.67;2.53;;;6.30;99.90;;;;;;4998877;28;20206;-80
2021/04/08 08:22:19;;;;;;;5.60;2.30;;;6.00;99.90;;;;;;4998855;28;20257;-81
2021/04/08 08:24:54;;;;;;;6.63;2.27;;;5.90;99.90;;;;;;5026336;28;20180;-79
2021/04/08 08:27:20;;;;;;;7.00;2.40;;;5.40;99.90;;;;;;5027651;28;20259;-80
2021/04/08 08:29:55;;;;;;;9.37;2.47;;;5.50;99.90;;;;;;4994879;28;20302;-81
2021/04/08 08:32:21;;;;;;;6.47;2.33;;;5.50;99.90;;;;;;5010955;28;20528;-79
2021/04/08 08:34:46;;;;;;;7.40;2.80;;;5.50;99.90;;;;;;5027184;28;20176;-79
2021/04/08 08:37:13;;;;;;;8.57;2.50;;;5.40;99.90;;;;;;4996116;28;20186;-85
2021/04/08 08:39:43;;;;;;;5.87;2.73;;;5.50;99.90;;;;;;4995888;28;20203;-77
2021/04/08 08:42:11;;;;;;;9.80;2.60;;;5.60;99.90;;;;;;5011022;28;20201;-79
2021/04/08 08:44:37;;;;;;;7.83;3.07;;;5.80;99.90;;;;;;5017426;28;20270;-77
2021/04/08 08:47:27;;;;;;;6.50;2.83;;;6.00;99.90;;;;;;5033258;28;20178;-77
2021/04/08 08:50:00;;;;;;;7.67;2.20;;;6.30;99.90;;;;;;5034392;28;20212;-74
2021/04/08 08:52:27;;;;;;;7.03;2.37;;;6.40;99.90;;;;;;5012332;28;20171;-77
2021/04/08 08:54:53;;;;;;;7.80;2.33;;;6.40;99.90;;;;;;4999994;28;20178;-76
2021/04/08 08:57:19;;;;;;;8.67;2.67;;;6.30;99.90;;;;;;5016899;28;20180;-78
2021/04/08 08:59:45;;;;;;;8.33;2.50;;;5.50;99.90;;;;;;5000532;28;20293;-80
2021/04/08 09:02:11;;;;;;;8.30;2.50;;;6.60;99.90;;;;;;5035104;28;20190;-83
2021/04/08 09:04:37;;;;;;;8.17;2.67;;;6.80;99.90;;;;;;4993105;28;20184;-78
2021/04/08 09:07:11;;;;;;;11.97;3.20;;;6.20;99.90;;;;;;4968850;28;20187;-80
2021/04/08 09:09:38;;;;;;;13.90;4.23;;;7.80;99.90;;;;;;4996870;28;20215;-82
2021/04/08 09:12:08;;;;;;;12.50;4.43;;;7.30;99.90;;;;;;4981708;28;20168;-78
2021/04/08 09:14:34;;;;;;;9.53;3.57;;;7.40;99.90;;;;;;4997182;28;20189;-78
2021/04/08 09:16:59;;;;;;;8.03;2.50;;;7.20;99.90;;;;;;4996845;28;20171;-77
2021/04/08 09:19:25;;;;;;;5.10;2.00;;;7.90;99.90;;;;;;5012755;28;20568;-76
2021/04/08 09:21:52;;;;;;;6.77;2.10;;;7.60;99.90;;;;;;5012518;28;20183;-77
2021/04/08 09:24:23;;;;;;;9.00;2.33;;;7.60;99.90;;;;;;5012652;28;20199;-77
2021/04/08 09:26:51;;;;;;;5.47;2.40;;;7.50;99.90;;;;;;4986957;28;20179;-79
2021/04/08 09:29:33;;;;;;;10.13;2.50;;;7.30;99.90;;;;;;5000060;28;20227;-80
2021/04/08 09:32:25;;;;;;;8.50;2.47;;;7.30;99.90;;;;;;5014403;28;20167;-77
2021/04/08 09:35:08;;;;;;;6.07;2.10;;;7.30;99.90;;;;;;5018028;28;20180;-80
2021/04/08 09:37:46;;;;;;;6.60;2.03;;;7.40;99.90;;;;;;5015222;28;20181;-80
2021/04/08 09:40:21;;;;;;;4.77;1.80;;;7.30;99.90;;;;;;5014059;28;20211;-79
2021/04/08 09:42:50;;;;;;;10.83;1.77;;;7.10;99.90;;;;;;5012952;28;20179;-79
2021/04/08 09:45:15;;;;;;;6.87;1.80;;;6.80;99.90;;;;;;4996983;28;20206;-80
2021/04/08 09:47:41;;;;;;;6.73;1.80;;;7.20;99.90;;;;;;4980121;28;20666;-79
2021/04/08 09:50:07;;;;;;;5.23;1.80;;;7.20;99.90;;;;;;4996211;28;20721;-79
2021/04/08 09:52:32;;;;;;;5.57;1.70;;;7.20;99.90;;;;;;4998558;28;20263;-78
2021/04/08 09:54:58;;;;;;;6.80;1.80;;;7.10;99.90;;;;;;4987537;28;20203;-77
2021/04/08 09:57:36;;;;;;;8.90;1.67;;;7.10;99.90;;;;;;5017976;28;20180;-77
2021/04/08 10:00:02;;;;;;;4.43;1.60;;;7.10;99.90;;;;;;5016250;28;20199;-77
2021/04/08 10:02:28;;;;;;;6.40;1.80;;;7.10;99.90;;;;;;5015786;28;20194;-78
2021/04/08 10:05:03;;;;;;;4.10;1.50;;;7.10;99.90;;;;;;4982017;28;20187;-77
2021/04/08 10:07:29;;;;;;;4.57;1.97;;;7.10;99.90;;;;;;4998932;28;20187;-74
2021/04/08 10:09:55;;;;;;;3.73;1.63;;;7.00;99.90;;;;;;4996172;28;20246;-73
2021/04/08 10:12:33;;;;;;;5.30;1.80;;;6.80;99.90;;;;;;4980060;28;20226;-76
2021/04/08 10:14:59;;;;;;;4.57;1.73;;;6.80;99.90;;;;;;4995960;28;20637;-75
2021/04/08 10:17:40;;;;;;;4.17;2.00;;;6.80;99.90;;;;;;4995221;28;20219;-75
2021/04/08 10:20:06;;;;;;;7.67;2.07;;;7.00;99.90;;;;;;5011699;28;20584;-76
2021/04/08 10:22:40;;;;;;;7.73;2.50;;;6.90;99.90;;;;;;5027251;28;20209;-75
2021/04/08 10:25:06;;;;;;;4.43;1.63;;;7.10;99.90;;;;;;4975868;28;20191;-75
2021/04/08 10:27:31;;;;;;;6.23;2.07;;;6.80;99.90;;;;;;4976231;28;20234;-80
2021/04/08 10:29:57;;;;;;;3.27;2.00;;;7.10;99.90;;;;;;5008582;28;20581;-77
2021/04/08 10:32:34;;;;;;;5.60;2.17;;;7.00;99.90;;;;;;5011868;28;20701;-77
2021/04/08 10:35:00;;;;;;;5.47;1.60;;;6.90;99.90;;;;;;5011631;28;20167;-77
2021/04/08 10:37:25;;;;;;;4.70;1.90;;;7.00;99.90;;;;;;5010705;28;20187;-78
2021/04/08 10:39:51;;;;;;;5.70;1.90;;;7.30;99.90;;;;;;4959695;28;20227;-78
2021/04/08 10:42:16;;;;;;;4.77;1.90;;;7.00;99.90;;;;;;4959553;28;20227;-77
2021/04/08 10:44:50;;;;;;;6.30;1.97;;;7.20;99.90;;;;;;4959633;28;20184;-76
2021/04/08 10:47:20;;;;;;;2.27;1.40;;;7.60;99.90;;;;;;4975573;28;20195;-77
2021/04/08 10:49:59;;;;;;;2.80;1.23;;;7.40;99.90;;;;;;4975902;28;20216;-76
2021/04/08 10:52:30;;;;;;;2.43;1.30;;;7.30;99.90;;;;;;4960086;28;20263;-77
2021/04/08 10:54:58;;;;;;;4.07;1.50;;;7.40;99.90;;;;;;4976648;28;20616;-77
2021/04/08 10:57:24;;;;;;;5.07;1.57;;;7.70;99.90;;;;;;4975350;28;20267;-77
2021/04/08 10:59:50;;;;;;;3.10;1.63;;;7.70;99.90;;;;;;4975537;28;20624;-78
2021/04/08 11:02:29;;;;;;;1.83;1.30;;;7.60;99.90;;;;;;4959263;28;20184;-75
2021/04/08 11:04:56;;;;;;;4.77;1.80;;;7.50;99.90;;;;;;4960232;28;20180;-75
2021/04/08 11:07:22;;;;;;;3.63;1.50;;;7.40;99.90;;;;;;4961954;28;20195;-77
2021/04/08 11:09:48;;;;;;;7.70;1.67;;;7.60;99.90;;;;;;4994771;28;20760;-73
2021/04/08 11:12:15;;;;;;;2.23;1.50;;;7.40;99.90;;;;;;4994907;28;20183;-74
2021/04/08 11:14:44;;;;;;;4.00;1.80;;;7.50;99.90;;;;;;5010983;28;20566;-75
2021/04/08 11:17:10;;;;;;;5.20;1.93;;;7.40;99.90;;;;;;4977949;28;20195;-75
2021/04/08 11:19:36;;;;;;;2.20;1.47;;;7.40;99.90;;;;;;4994449;28;20197;-75
2021/04/08 11:22:02;;;;;;;3.43;1.63;;;7.20;99.90;;;;;;4994712;28;20214;-75
2021/04/08 11:24:27;;;;;;;6.13;1.60;;;7.20;99.90;;;;;;4994475;28;20208;-76
2021/04/08 11:26:53;;;;;;;5.07;1.73;;;7.20;99.90;;;;;;4994636;28;20188;-75
2021/04/08 11:29:23;;;;;;;2.37;2.00;;;7.30;99.90;;;;;;4994247;28;20207;-75
2021/04/08 11:32:19;;;;;;;3.87;1.80;;;7.30;99.90;;;;;;4994681;28;20179;-74
2021/04/08 11:34:50;;;;;;;4.37;2.03;;;7.40;99.90;;;;;;5010291;28;20246;-75
2021/04/08 11:37:16;;;;;;;3.60;1.70;;;7.50;99.90;;;;;;4977035;28;20183;-74
2021/04/08 11:39:43;;;;;;;3.90;2.27;;;7.50;99.90;;;;;;4993484;28;20672;-75
2021/04/08 11:42:16;;;;;;;4.63;2.20;;;7.80;99.90;;;;;;5010176;28;20246;-75
2021/04/08 11:44:41;;;;;;;3.73;2.27;;;7.90;99.90;;;;;;5010312;28;20179;-75
2021/04/08 11:47:21;;;;;;;2.67;2.00;;;8.10;99.90;;;;;;5009831;28;20602;-75
2021/04/08 11:49:51;;;;;;;4.87;2.47;;;8.40;99.90;;;;;;4993318;28;20233;-74
2021/04/08 11:52:20;;;;;;;4.97;2.30;;;8.60;99.90;;;;;;4994341;28;20186;-73
2021/04/08 11:55:04;;;;;;;3.60;2.23;;;8.50;99.90;;;;;;4997711;28;20587;-80
2021/04/08 11:57:30;;;;;;;4.27;2.40;;;8.30;99.90;;;;;;5018291;28;20179;-77
2021/04/08 12:00:14;;;;;;;3.73;2.37;;;8.20;99.90;;;;;;4995014;28;20255;-78
2021/04/08 12:02:40;;;;;;;3.17;2.30;;;8.30;99.90;;;;;;5011344;28;20554;-77
2021/04/08 12:05:12;;;;;;;4.60;2.67;;;8.10;99.90;;;;;;5017136;28;20179;-78
2021/04/08 12:07:46;;;;;;;5.67;2.67;;;7.90;99.90;;;;;;5013559;28;20178;-79
2021/04/08 12:10:28;;;;;;;4.37;2.80;;;7.80;99.90;;;;;;4980738;28;20211;-77
2021/04/08 12:12:54;;;;;;;4.90;3.10;;;8.00;99.90;;;;;;5002551;28;20178;-81
2021/04/08 12:15:34;;;;;;;4.53;3.13;;;7.90;99.90;;;;;;5004279;28;20180;-74
2021/04/08 12:17:59;;;;;;;4.80;3.00;;;7.90;99.90;;;;;;4996242;28;20549;-80
2021/04/08 12:20:25;;;;;;;4.83;3.37;;;7.80;99.90;;;;;;4995468;28;20203;-79
2021/04/08 12:22:52;;;;;;;5.93;3.47;;;7.70;99.90;;;;;;4997766;28;20179;-78
2021/04/08 12:25:19;;;;;;;6.30;3.50;;;7.60;99.90;;;;;;4986421;28;20184;-81
2021/04/08 12:27:44;;;;;;;4.40;3.40;;;7.40;99.90;;;;;;4984896;28;20590;-81
2021/04/08 12:30:11;;;;;;;4.80;3.67;;;7.40;99.90;;;;;;5022342;28;20203;-83
2021/04/08 12:32:36;;;;;;;4.77;3.57;;;7.20;99.90;;;;;;5016847;28;20262;-81
2021/04/08 12:35:03;;;;;;;5.30;3.60;;;7.20;99.90;;;;;;5005979;28;20198;-81
2021/04/08 12:37:28;;;;;;;5.57;3.80;;;7.30;99.90;;;;;;4993563;28;20177;-80
2021/04/08 12:39:54;;;;;;;7.07;3.40;;;7.20;99.90;;;;;;5013645;28;20269;-79
2021/04/08 12:42:20;;;;;;;5.07;3.63;;;7.20;99.90;;;;;;5029414;28;20549;-78
2021/04/08 12:44:46;;;;;;;5.33;3.50;;;7.20;99.90;;;;;;5035181;28;20285;-80
2021/04/08 12:47:12;;;;;;;7.10;3.87;;;7.20;99.90;;;;;;5017110;28;20709;-75
2021/04/08 12:49:38;;;;;;;7.47;3.73;;;7.40;99.90;;;;;;5033235;28;20289;-78
2021/04/08 12:52:04;;;;;;;4.10;3.53;;;7.60;99.90;;;;;;5034669;28;20258;-75
2021/04/08 12:54:33;;;;;;;6.07;3.40;;;7.80;99.90;;;;;;5033746;28;20209;-75
2021/04/08 12:56:59;;;;;;;4.57;3.17;;;7.70;99.90;;;;;;5031459;28;20186;-76